sensor_id;sensor_type;location;lat;lon;timestamp;temperature;humidity
74809;DHT22;63338;39.544;2.596;2023-04-08T00:00:52;12.70;85.40
74809;DHT22;63338;39.544;2.596;2023-04-08T00:03:19;12.70;85.50
74809;DHT22;63338;39.544;2.596;2023-04-08T00:05:47;12.70;86.60
74809;DHT22;63338;39.544;2.596;2023-04-08T00:08:13;12.60;86.80
74809;DHT22;63338;39.544;2.596;2023-04-08T00:10:43;12.50;86.90
74809;DHT22;63338;39.544;2.596;2023-04-08T00:13:09;12.60;87.00
74809;DHT22;63338;39.544;2.596;2023-04-08T00:15:36;12.50;86.90
74809;DHT22;63338;39.544;2.596;2023-04-08T00:18:02;12.60;86.80
74809;DHT22;63338;39.544;2.596;2023-04-08T00:20:28;12.50;86.70
74809;DHT22;63338;39.544;2.596;2023-04-08T00:22:55;12.60;86.80
74809;DHT22;63338;39.544;2.596;2023-04-08T00:25:21;12.50;86.80
74809;DHT22;63338;39.544;2.596;2023-04-08T00:27:47;12.60;87.20
74809;DHT22;63338;39.544;2.596;2023-04-08T00:30:13;12.50;87.10
74809;DHT22;63338;39.544;2.596;2023-04-08T00:32:40;12.50;87.30
74809;DHT22;63338;39.544;2.596;2023-04-08T00:35:06;12.40;87.40
74809;DHT22;63338;39.544;2.596;2023-04-08T00:37:33;12.50;87.30
74809;DHT22;63338;39.544;2.596;2023-04-08T00:39:59;12.30;87.30
74809;DHT22;63338;39.544;2.596;2023-04-08T00:42:25;12.40;87.40
74809;DHT22;63338;39.544;2.596;2023-04-08T00:44:51;12.40;87.60
74809;DHT22;63338;39.544;2.596;2023-04-08T00:47:18;12.30;87.50
74809;DHT22;63338;39.544;2.596;2023-04-08T00:49:44;12.30;87.60
74809;DHT22;63338;39.544;2.596;2023-04-08T00:52:10;12.20;87.60
74809;DHT22;63338;39.544;2.596;2023-04-08T00:54:37;12.50;87.70
74809;DHT22;63338;39.544;2.596;2023-04-08T00:57:04;12.30;87.60
74809;DHT22;63338;39.544;2.596;2023-04-08T00:59:31;12.30;87.60
74809;DHT22;63338;39.544;2.596;2023-04-08T01:05:08;12.40;87.80
74809;DHT22;63338;39.544;2.596;2023-04-08T01:07:43;12.30;87.60
74809;DHT22;63338;39.544;2.596;2023-04-08T01:10:27;12.30;87.30
74809;DHT22;63338;39.544;2.596;2023-04-08T01:12:55;12.30;87.60
74809;DHT22;63338;39.544;2.596;2023-04-08T01:15:25;12.00;87.20
74809;DHT22;63338;39.544;2.596;2023-04-08T01:17:56;12.00;87.30
74809;DHT22;63338;39.544;2.596;2023-04-08T01:20:25;12.00;87.60
74809;DHT22;63338;39.544;2.596;2023-04-08T01:25:34;11.80;88.10
74809;DHT22;63338;39.544;2.596;2023-04-08T01:28:09;11.70;88.10
74809;DHT22;63338;39.544;2.596;2023-04-08T01:30:38;11.70;88.30
74809;DHT22;63338;39.544;2.596;2023-04-08T01:33:10;11.50;88.50
74809;DHT22;63338;39.544;2.596;2023-04-08T01:35:37;11.50;88.70
74809;DHT22;63338;39.544;2.596;2023-04-08T01:38:05;11.50;88.90
74809;DHT22;63338;39.544;2.596;2023-04-08T01:40:33;11.50;89.20
74809;DHT22;63338;39.544;2.596;2023-04-08T01:43:01;11.50;89.30
74809;DHT22;63338;39.544;2.596;2023-04-08T01:45:29;11.50;89.30
74809;DHT22;63338;39.544;2.596;2023-04-08T01:47:56;11.60;89.40
74809;DHT22;63338;39.544;2.596;2023-04-08T01:50:24;11.60;89.50
74809;DHT22;63338;39.544;2.596;2023-04-08T01:52:52;11.70;89.30
74809;DHT22;63338;39.544;2.596;2023-04-08T01:55:19;11.70;89.40
74809;DHT22;63338;39.544;2.596;2023-04-08T01:57:50;11.80;89.20
74809;DHT22;63338;39.544;2.596;2023-04-08T02:00:23;11.70;89.20
74809;DHT22;63338;39.544;2.596;2023-04-08T02:02:51;11.70;89.00
74809;DHT22;63338;39.544;2.596;2023-04-08T02:05:18;11.70;89.10
74809;DHT22;63338;39.544;2.596;2023-04-08T02:07:44;11.70;89.10
74809;DHT22;63338;39.544;2.596;2023-04-08T02:10:12;11.70;88.90
74809;DHT22;63338;39.544;2.596;2023-04-08T02:12:38;11.70;89.10
74809;DHT22;63338;39.544;2.596;2023-04-08T02:15:08;11.80;88.80
74809;DHT22;63338;39.544;2.596;2023-04-08T02:17:45;11.80;88.80
74809;DHT22;63338;39.544;2.596;2023-04-08T02:20:16;11.80;88.70
74809;DHT22;63338;39.544;2.596;2023-04-08T02:22:53;11.80;88.60
74809;DHT22;63338;39.544;2.596;2023-04-08T02:25:24;11.80;88.30
74809;DHT22;63338;39.544;2.596;2023-04-08T02:27:51;11.80;88.40
74809;DHT22;63338;39.544;2.596;2023-04-08T02:30:20;11.80;88.60
74809;DHT22;63338;39.544;2.596;2023-04-08T02:32:47;11.70;88.60
74809;DHT22;63338;39.544;2.596;2023-04-08T02:35:14;11.80;88.70
74809;DHT22;63338;39.544;2.596;2023-04-08T02:37:41;11.70;88.50
74809;DHT22;63338;39.544;2.596;2023-04-08T02:40:28;11.80;88.30
74809;DHT22;63338;39.544;2.596;2023-04-08T02:42:55;11.70;88.30
74809;DHT22;63338;39.544;2.596;2023-04-08T02:45:21;11.80;88.20
74809;DHT22;63338;39.544;2.596;2023-04-08T02:47:48;11.60;88.30
74809;DHT22;63338;39.544;2.596;2023-04-08T02:50:14;11.50;88.30
74809;DHT22;63338;39.544;2.596;2023-04-08T02:52:40;11.60;88.50
74809;DHT22;63338;39.544;2.596;2023-04-08T02:55:06;11.60;88.50
74809;DHT22;63338;39.544;2.596;2023-04-08T02:57:35;11.50;88.50
74809;DHT22;63338;39.544;2.596;2023-04-08T03:00:03;11.40;88.70
74809;DHT22;63338;39.544;2.596;2023-04-08T03:02:29;11.40;88.80
74809;DHT22;63338;39.544;2.596;2023-04-08T03:04:55;11.50;88.80
74809;DHT22;63338;39.544;2.596;2023-04-08T03:07:22;11.40;89.00
74809;DHT22;63338;39.544;2.596;2023-04-08T03:09:48;11.30;89.20
74809;DHT22;63338;39.544;2.596;2023-04-08T03:12:14;11.30;89.30
74809;DHT22;63338;39.544;2.596;2023-04-08T03:14:40;11.30;89.50
74809;DHT22;63338;39.544;2.596;2023-04-08T03:17:06;11.30;89.60
74809;DHT22;63338;39.544;2.596;2023-04-08T03:19:32;11.30;89.50
74809;DHT22;63338;39.544;2.596;2023-04-08T03:21:58;11.20;89.50
74809;DHT22;63338;39.544;2.596;2023-04-08T03:24:24;11.20;89.40
74809;DHT22;63338;39.544;2.596;2023-04-08T03:26:50;11.20;89.50
74809;DHT22;63338;39.544;2.596;2023-04-08T03:29:16;11.20;89.70
74809;DHT22;63338;39.544;2.596;2023-04-08T03:31:42;11.10;89.90
74809;DHT22;63338;39.544;2.596;2023-04-08T03:34:08;11.00;90.20
74809;DHT22;63338;39.544;2.596;2023-04-08T03:36:34;11.10;90.20
74809;DHT22;63338;39.544;2.596;2023-04-08T03:38:59;11.00;90.50
74809;DHT22;63338;39.544;2.596;2023-04-08T03:41:25;11.00;90.90
74809;DHT22;63338;39.544;2.596;2023-04-08T03:43:52;11.00;91.20
74809;DHT22;63338;39.544;2.596;2023-04-08T03:46:18;11.10;91.20
74809;DHT22;63338;39.544;2.596;2023-04-08T03:48:44;11.10;91.00
74809;DHT22;63338;39.544;2.596;2023-04-08T03:51:09;11.10;91.20
74809;DHT22;63338;39.544;2.596;2023-04-08T03:53:36;11.10;91.10
74809;DHT22;63338;39.544;2.596;2023-04-08T03:56:02;11.10;90.70
74809;DHT22;63338;39.544;2.596;2023-04-08T03:58:29;11.10;90.60
74809;DHT22;63338;39.544;2.596;2023-04-08T04:00:55;11.10;90.70
74809;DHT22;63338;39.544;2.596;2023-04-08T04:03:21;11.10;90.60
74809;DHT22;63338;39.544;2.596;2023-04-08T04:05:47;10.90;90.80
74809;DHT22;63338;39.544;2.596;2023-04-08T04:08:13;10.90;90.90
74809;DHT22;63338;39.544;2.596;2023-04-08T04:10:39;10.90;91.20
74809;DHT22;63338;39.544;2.596;2023-04-08T04:13:05;10.90;91.20
74809;DHT22;63338;39.544;2.596;2023-04-08T04:15:31;11.00;91.50
74809;DHT22;63338;39.544;2.596;2023-04-08T04:17:57;11.00;91.40
74809;DHT22;63338;39.544;2.596;2023-04-08T04:20:23;10.90;91.10
74809;DHT22;63338;39.544;2.596;2023-04-08T04:22:50;11.00;90.80
74809;DHT22;63338;39.544;2.596;2023-04-08T04:25:17;11.10;91.10
74809;DHT22;63338;39.544;2.596;2023-04-08T04:27:43;10.90;91.10
74809;DHT22;63338;39.544;2.596;2023-04-08T04:30:09;10.90;91.10
74809;DHT22;63338;39.544;2.596;2023-04-08T04:32:40;10.90;91.20
74809;DHT22;63338;39.544;2.596;2023-04-08T04:35:11;10.90;91.20
74809;DHT22;63338;39.544;2.596;2023-04-08T04:37:37;11.00;91.20
74809;DHT22;63338;39.544;2.596;2023-04-08T04:40:04;10.90;90.90
74809;DHT22;63338;39.544;2.596;2023-04-08T04:42:33;10.90;91.00
74809;DHT22;63338;39.544;2.596;2023-04-08T04:45:00;10.90;91.10
74809;DHT22;63338;39.544;2.596;2023-04-08T04:47:26;10.90;91.20
74809;DHT22;63338;39.544;2.596;2023-04-08T04:49:52;11.00;91.30
74809;DHT22;63338;39.544;2.596;2023-04-08T04:52:18;10.80;91.50
74809;DHT22;63338;39.544;2.596;2023-04-08T04:54:44;10.90;91.70
74809;DHT22;63338;39.544;2.596;2023-04-08T04:57:11;10.90;91.70
74809;DHT22;63338;39.544;2.596;2023-04-08T04:59:37;10.90;91.70
74809;DHT22;63338;39.544;2.596;2023-04-08T05:02:03;10.90;91.50
74809;DHT22;63338;39.544;2.596;2023-04-08T05:04:29;11.00;91.60
74809;DHT22;63338;39.544;2.596;2023-04-08T05:06:55;10.90;91.60
74809;DHT22;63338;39.544;2.596;2023-04-08T05:09:23;10.90;91.50
74809;DHT22;63338;39.544;2.596;2023-04-08T05:11:49;11.00;91.40
74809;DHT22;63338;39.544;2.596;2023-04-08T05:14:15;10.90;91.50
74809;DHT22;63338;39.544;2.596;2023-04-08T05:16:41;10.90;91.50
74809;DHT22;63338;39.544;2.596;2023-04-08T05:19:07;10.80;91.70
74809;DHT22;63338;39.544;2.596;2023-04-08T05:21:33;10.90;91.50
74809;DHT22;63338;39.544;2.596;2023-04-08T05:23:59;10.80;91.40
74809;DHT22;63338;39.544;2.596;2023-04-08T05:26:25;10.80;91.50
74809;DHT22;63338;39.544;2.596;2023-04-08T05:28:51;10.80;91.50
74809;DHT22;63338;39.544;2.596;2023-04-08T05:31:18;10.90;91.40
74809;DHT22;63338;39.544;2.596;2023-04-08T05:33:44;10.80;91.70
74809;DHT22;63338;39.544;2.596;2023-04-08T05:36:11;10.80;91.80
74809;DHT22;63338;39.544;2.596;2023-04-08T05:38:39;10.70;92.10
74809;DHT22;63338;39.544;2.596;2023-04-08T05:41:09;10.80;92.10
74809;DHT22;63338;39.544;2.596;2023-04-08T05:43:35;10.90;92.10
74809;DHT22;63338;39.544;2.596;2023-04-08T05:46:09;10.80;92.10
74809;DHT22;63338;39.544;2.596;2023-04-08T05:48:38;10.90;91.90
74809;DHT22;63338;39.544;2.596;2023-04-08T05:51:04;10.90;91.90
74809;DHT22;63338;39.544;2.596;2023-04-08T05:53:30;11.00;92.10
74809;DHT22;63338;39.544;2.596;2023-04-08T05:55:56;11.00;92.00
74809;DHT22;63338;39.544;2.596;2023-04-08T05:58:22;11.10;92.10
74809;DHT22;63338;39.544;2.596;2023-04-08T06:00:48;11.10;92.10
74809;DHT22;63338;39.544;2.596;2023-04-08T06:03:14;11.20;92.10
74809;DHT22;63338;39.544;2.596;2023-04-08T06:05:41;11.30;92.10
74809;DHT22;63338;39.544;2.596;2023-04-08T06:08:07;11.50;92.00
74809;DHT22;63338;39.544;2.596;2023-04-08T06:10:32;11.50;92.20
74809;DHT22;63338;39.544;2.596;2023-04-08T06:12:58;11.70;92.30
74809;DHT22;63338;39.544;2.596;2023-04-08T06:15:25;11.80;92.30
74809;DHT22;63338;39.544;2.596;2023-04-08T06:17:51;12.00;92.20
74809;DHT22;63338;39.544;2.596;2023-04-08T06:20:17;12.10;92.20
74809;DHT22;63338;39.544;2.596;2023-04-08T06:22:42;12.40;92.10
74809;DHT22;63338;39.544;2.596;2023-04-08T06:25:08;12.60;91.90
74809;DHT22;63338;39.544;2.596;2023-04-08T06:27:34;12.80;90.50
74809;DHT22;63338;39.544;2.596;2023-04-08T06:30:04;12.90;90.40
74809;DHT22;63338;39.544;2.596;2023-04-08T06:32:30;13.10;90.00
74809;DHT22;63338;39.544;2.596;2023-04-08T06:34:56;13.10;90.10
74809;DHT22;63338;39.544;2.596;2023-04-08T06:37:22;13.40;89.80
74809;DHT22;63338;39.544;2.596;2023-04-08T06:39:49;13.40;89.70
74809;DHT22;63338;39.544;2.596;2023-04-08T06:42:15;13.60;89.50
74809;DHT22;63338;39.544;2.596;2023-04-08T06:44:41;13.70;89.10
74809;DHT22;63338;39.544;2.596;2023-04-08T06:47:07;13.90;88.80
74809;DHT22;63338;39.544;2.596;2023-04-08T06:49:33;14.00;88.50
74809;DHT22;63338;39.544;2.596;2023-04-08T06:51:59;14.10;88.30
74809;DHT22;63338;39.544;2.596;2023-04-08T06:54:25;14.30;87.90
74809;DHT22;63338;39.544;2.596;2023-04-08T06:56:51;14.50;87.90
74809;DHT22;63338;39.544;2.596;2023-04-08T06:59:17;14.60;87.80
74809;DHT22;63338;39.544;2.596;2023-04-08T07:01:43;14.80;87.50
74809;DHT22;63338;39.544;2.596;2023-04-08T07:04:10;14.90;87.00
74809;DHT22;63338;39.544;2.596;2023-04-08T07:06:36;15.10;86.80
74809;DHT22;63338;39.544;2.596;2023-04-08T07:09:02;15.20;86.50
74809;DHT22;63338;39.544;2.596;2023-04-08T07:11:28;15.40;86.00
74809;DHT22;63338;39.544;2.596;2023-04-08T07:13:54;15.50;84.50
74809;DHT22;63338;39.544;2.596;2023-04-08T07:16:20;15.70;84.10
74809;DHT22;63338;39.544;2.596;2023-04-08T07:18:46;15.70;83.30
74809;DHT22;63338;39.544;2.596;2023-04-08T07:21:12;15.80;83.10
74809;DHT22;63338;39.544;2.596;2023-04-08T07:23:38;16.00;82.80
74809;DHT22;63338;39.544;2.596;2023-04-08T07:26:04;16.10;82.00
74809;DHT22;63338;39.544;2.596;2023-04-08T07:28:33;16.10;81.60
74809;DHT22;63338;39.544;2.596;2023-04-08T07:31:10;16.30;81.40
74809;DHT22;63338;39.544;2.596;2023-04-08T07:33:36;16.30;81.30
74809;DHT22;63338;39.544;2.596;2023-04-08T07:36:03;16.40;80.90
74809;DHT22;63338;39.544;2.596;2023-04-08T07:38:29;16.50;80.70
74809;DHT22;63338;39.544;2.596;2023-04-08T07:40:55;16.80;80.40
74809;DHT22;63338;39.544;2.596;2023-04-08T07:43:21;16.90;79.80
74809;DHT22;63338;39.544;2.596;2023-04-08T07:45:47;17.10;79.10
74809;DHT22;63338;39.544;2.596;2023-04-08T07:48:13;17.20;78.90
74809;DHT22;63338;39.544;2.596;2023-04-08T07:50:39;17.40;78.30
74809;DHT22;63338;39.544;2.596;2023-04-08T07:53:07;17.70;77.90
74809;DHT22;63338;39.544;2.596;2023-04-08T07:55:34;18.20;76.10
74809;DHT22;63338;39.544;2.596;2023-04-08T07:58:00;18.50;75.10
74809;DHT22;63338;39.544;2.596;2023-04-08T08:00:27;19.10;73.60
74809;DHT22;63338;39.544;2.596;2023-04-08T08:02:56;19.70;72.50
74809;DHT22;63338;39.544;2.596;2023-04-08T08:05:22;20.20;71.10
74809;DHT22;63338;39.544;2.596;2023-04-08T08:07:48;20.90;69.40
74809;DHT22;63338;39.544;2.596;2023-04-08T08:10:17;21.40;66.70
74809;DHT22;63338;39.544;2.596;2023-04-08T08:12:43;21.80;66.50
74809;DHT22;63338;39.544;2.596;2023-04-08T08:15:12;22.30;64.80
74809;DHT22;63338;39.544;2.596;2023-04-08T08:17:38;22.70;64.20
74809;DHT22;63338;39.544;2.596;2023-04-08T08:20:05;23.00;62.60
74809;DHT22;63338;39.544;2.596;2023-04-08T08:22:33;23.20;62.50
74809;DHT22;63338;39.544;2.596;2023-04-08T08:24:59;23.50;62.10
74809;DHT22;63338;39.544;2.596;2023-04-08T08:27:25;23.70;60.90
74809;DHT22;63338;39.544;2.596;2023-04-08T08:29:51;23.90;60.20
74809;DHT22;63338;39.544;2.596;2023-04-08T08:32:18;24.20;59.80
74809;DHT22;63338;39.544;2.596;2023-04-08T08:34:44;24.30;59.10
74809;DHT22;63338;39.544;2.596;2023-04-08T08:37:10;24.40;58.70
74809;DHT22;63338;39.544;2.596;2023-04-08T08:39:36;24.70;58.80
74809;DHT22;63338;39.544;2.596;2023-04-08T08:42:02;25.00;58.00
74809;DHT22;63338;39.544;2.596;2023-04-08T08:44:29;25.10;58.10
74809;DHT22;63338;39.544;2.596;2023-04-08T08:46:55;25.40;57.80
74809;DHT22;63338;39.544;2.596;2023-04-08T08:49:21;25.60;56.80
74809;DHT22;63338;39.544;2.596;2023-04-08T08:51:49;25.60;56.70
74809;DHT22;63338;39.544;2.596;2023-04-08T08:54:19;25.70;56.70
74809;DHT22;63338;39.544;2.596;2023-04-08T08:56:45;25.50;56.70
74809;DHT22;63338;39.544;2.596;2023-04-08T08:59:11;25.60;56.50
74809;DHT22;63338;39.544;2.596;2023-04-08T09:01:38;25.60;56.50
74809;DHT22;63338;39.544;2.596;2023-04-08T09:04:23;25.50;56.50
74809;DHT22;63338;39.544;2.596;2023-04-08T09:07:08;25.40;56.30
74809;DHT22;63338;39.544;2.596;2023-04-08T09:09:51;25.60;56.40
74809;DHT22;63338;39.544;2.596;2023-04-08T09:12:17;25.50;56.40
74809;DHT22;63338;39.544;2.596;2023-04-08T09:14:44;25.40;56.40
74809;DHT22;63338;39.544;2.596;2023-04-08T09:17:10;25.50;56.70
74809;DHT22;63338;39.544;2.596;2023-04-08T09:19:36;25.50;56.40
74809;DHT22;63338;39.544;2.596;2023-04-08T09:22:10;25.70;56.30
74809;DHT22;63338;39.544;2.596;2023-04-08T09:24:36;25.90;56.00
74809;DHT22;63338;39.544;2.596;2023-04-08T09:27:04;25.90;55.80
74809;DHT22;63338;39.544;2.596;2023-04-08T09:29:31;25.70;55.70
74809;DHT22;63338;39.544;2.596;2023-04-08T09:31:59;25.70;55.80
74809;DHT22;63338;39.544;2.596;2023-04-08T09:34:27;25.40;56.30
74809;DHT22;63338;39.544;2.596;2023-04-08T09:36:54;25.40;56.30
74809;DHT22;63338;39.544;2.596;2023-04-08T09:39:20;25.20;57.00
74809;DHT22;63338;39.544;2.596;2023-04-08T09:41:50;25.20;56.80
74809;DHT22;63338;39.544;2.596;2023-04-08T09:44:17;25.40;56.50
74809;DHT22;63338;39.544;2.596;2023-04-08T09:49:30;25.30;57.30
74809;DHT22;63338;39.544;2.596;2023-04-08T09:52:06;25.10;57.20
74809;DHT22;63338;39.544;2.596;2023-04-08T09:57:19;25.10;57.00
74809;DHT22;63338;39.544;2.596;2023-04-08T09:59:54;25.00;57.30
74809;DHT22;63338;39.544;2.596;2023-04-08T10:02:28;25.00;57.40
74809;DHT22;63338;39.544;2.596;2023-04-08T10:04:58;25.00;57.70
74809;DHT22;63338;39.544;2.596;2023-04-08T10:07:25;25.30;57.20
74809;DHT22;63338;39.544;2.596;2023-04-08T10:09:51;25.30;57.10
74809;DHT22;63338;39.544;2.596;2023-04-08T10:12:17;25.40;57.00
74809;DHT22;63338;39.544;2.596;2023-04-08T10:17:51;25.50;56.80
74809;DHT22;63338;39.544;2.596;2023-04-08T10:23:03;25.20;57.60
74809;DHT22;63338;39.544;2.596;2023-04-08T10:25:37;25.30;56.90
74809;DHT22;63338;39.544;2.596;2023-04-08T10:30:45;25.50;57.00
74809;DHT22;63338;39.544;2.596;2023-04-08T10:33:29;25.50;56.50
74809;DHT22;63338;39.544;2.596;2023-04-08T10:36:10;25.50;57.00
74809;DHT22;63338;39.544;2.596;2023-04-08T10:38:40;25.60;56.70
74809;DHT22;63338;39.544;2.596;2023-04-08T10:41:11;25.60;56.20
74809;DHT22;63338;39.544;2.596;2023-04-08T10:43:46;25.60;56.40
74809;DHT22;63338;39.544;2.596;2023-04-08T10:46:12;25.40;56.70
74809;DHT22;63338;39.544;2.596;2023-04-08T10:48:38;25.30;57.00
74809;DHT22;63338;39.544;2.596;2023-04-08T10:51:04;25.40;56.80
74809;DHT22;63338;39.544;2.596;2023-04-08T10:53:32;25.80;56.20
74809;DHT22;63338;39.544;2.596;2023-04-08T10:56:03;25.70;56.30
74809;DHT22;63338;39.544;2.596;2023-04-08T10:58:31;25.50;56.50
74809;DHT22;63338;39.544;2.596;2023-04-08T11:01:03;25.70;56.60
74809;DHT22;63338;39.544;2.596;2023-04-08T11:03:32;25.70;56.50
74809;DHT22;63338;39.544;2.596;2023-04-08T11:06:00;25.80;56.40
74809;DHT22;63338;39.544;2.596;2023-04-08T11:08:31;25.80;56.40
74809;DHT22;63338;39.544;2.596;2023-04-08T11:11:01;25.90;56.10
74809;DHT22;63338;39.544;2.596;2023-04-08T11:13:27;25.90;55.60
74809;DHT22;63338;39.544;2.596;2023-04-08T11:15:55;25.60;55.90
74809;DHT22;63338;39.544;2.596;2023-04-08T11:18:24;25.50;56.20
74809;DHT22;63338;39.544;2.596;2023-04-08T11:20:51;25.20;57.20
74809;DHT22;63338;39.544;2.596;2023-04-08T11:23:18;25.10;56.80
74809;DHT22;63338;39.544;2.596;2023-04-08T11:25:45;25.10;56.70
74809;DHT22;63338;39.544;2.596;2023-04-08T11:28:13;25.00;57.30
74809;DHT22;63338;39.544;2.596;2023-04-08T11:30:39;24.90;57.20
74809;DHT22;63338;39.544;2.596;2023-04-08T11:33:09;24.40;58.00
74809;DHT22;63338;39.544;2.596;2023-04-08T11:35:42;24.20;58.70
74809;DHT22;63338;39.544;2.596;2023-04-08T11:38:09;24.10;58.80
74809;DHT22;63338;39.544;2.596;2023-04-08T11:40:36;24.00;59.20
74809;DHT22;63338;39.544;2.596;2023-04-08T11:43:10;24.00;59.80
74809;DHT22;63338;39.544;2.596;2023-04-08T11:45:38;23.90;59.40
74809;DHT22;63338;39.544;2.596;2023-04-08T11:48:23;23.80;59.80
74809;DHT22;63338;39.544;2.596;2023-04-08T11:51:02;23.70;59.50
74809;DHT22;63338;39.544;2.596;2023-04-08T11:53:29;23.70;59.70
74809;DHT22;63338;39.544;2.596;2023-04-08T11:55:55;23.60;59.70
74809;DHT22;63338;39.544;2.596;2023-04-08T11:58:21;23.40;60.60
74809;DHT22;63338;39.544;2.596;2023-04-08T12:00:47;23.20;60.50
74809;DHT22;63338;39.544;2.596;2023-04-08T12:03:13;23.20;60.80
74809;DHT22;63338;39.544;2.596;2023-04-08T12:05:40;23.10;60.50
74809;DHT22;63338;39.544;2.596;2023-04-08T12:08:07;23.20;61.20
74809;DHT22;63338;39.544;2.596;2023-04-08T12:10:33;23.00;61.80
74809;DHT22;63338;39.544;2.596;2023-04-08T12:12:59;22.90;61.90
74809;DHT22;63338;39.544;2.596;2023-04-08T12:15:25;22.80;62.60
74809;DHT22;63338;39.544;2.596;2023-04-08T12:17:53;22.60;62.80
74809;DHT22;63338;39.544;2.596;2023-04-08T12:20:19;22.40;63.20
74809;DHT22;63338;39.544;2.596;2023-04-08T12:22:45;22.20;62.80
74809;DHT22;63338;39.544;2.596;2023-04-08T12:25:11;22.00;63.60
74809;DHT22;63338;39.544;2.596;2023-04-08T12:27:37;21.90;64.30
74809;DHT22;63338;39.544;2.596;2023-04-08T12:30:04;21.70;64.50
74809;DHT22;63338;39.544;2.596;2023-04-08T12:32:30;21.60;64.00
74809;DHT22;63338;39.544;2.596;2023-04-08T12:34:56;21.50;64.10
74809;DHT22;63338;39.544;2.596;2023-04-08T12:37:22;21.30;64.00
74809;DHT22;63338;39.544;2.596;2023-04-08T12:39:49;21.20;65.30
74809;DHT22;63338;39.544;2.596;2023-04-08T12:42:15;20.70;66.70
74809;DHT22;63338;39.544;2.596;2023-04-08T12:44:42;20.60;67.30
74809;DHT22;63338;39.544;2.596;2023-04-08T12:47:08;20.50;68.50
74809;DHT22;63338;39.544;2.596;2023-04-08T12:49:34;20.50;69.40
74809;DHT22;63338;39.544;2.596;2023-04-08T12:52:00;20.30;69.70
74809;DHT22;63338;39.544;2.596;2023-04-08T12:54:26;20.20;68.90
74809;DHT22;63338;39.544;2.596;2023-04-08T12:56:52;20.10;69.80
74809;DHT22;63338;39.544;2.596;2023-04-08T12:59:18;20.00;70.00
74809;DHT22;63338;39.544;2.596;2023-04-08T13:01:44;20.10;70.40
74809;DHT22;63338;39.544;2.596;2023-04-08T13:04:10;20.10;70.20
74809;DHT22;63338;39.544;2.596;2023-04-08T13:06:36;20.00;70.10
74809;DHT22;63338;39.544;2.596;2023-04-08T13:09:03;19.90;69.60
74809;DHT22;63338;39.544;2.596;2023-04-08T13:11:29;19.90;70.20
74809;DHT22;63338;39.544;2.596;2023-04-08T13:13:55;19.90;70.00
74809;DHT22;63338;39.544;2.596;2023-04-08T13:16:21;20.00;70.00
74809;DHT22;63338;39.544;2.596;2023-04-08T13:18:47;20.00;70.30
74809;DHT22;63338;39.544;2.596;2023-04-08T13:21:13;20.00;69.60
74809;DHT22;63338;39.544;2.596;2023-04-08T13:23:46;19.90;69.90
74809;DHT22;63338;39.544;2.596;2023-04-08T13:26:13;19.90;70.10
74809;DHT22;63338;39.544;2.596;2023-04-08T13:28:39;19.90;69.60
74809;DHT22;63338;39.544;2.596;2023-04-08T13:31:15;19.80;70.40
74809;DHT22;63338;39.544;2.596;2023-04-08T13:33:44;19.80;70.80
74809;DHT22;63338;39.544;2.596;2023-04-08T13:36:10;19.60;70.70
74809;DHT22;63338;39.544;2.596;2023-04-08T13:38:36;19.70;70.50
74809;DHT22;63338;39.544;2.596;2023-04-08T13:41:03;19.50;71.10
74809;DHT22;63338;39.544;2.596;2023-04-08T13:43:29;19.50;71.50
74809;DHT22;63338;39.544;2.596;2023-04-08T13:45:55;19.40;70.90
74809;DHT22;63338;39.544;2.596;2023-04-08T13:48:21;19.50;71.00
74809;DHT22;63338;39.544;2.596;2023-04-08T13:50:47;19.50;71.50
74809;DHT22;63338;39.544;2.596;2023-04-08T13:53:14;19.50;71.50
74809;DHT22;63338;39.544;2.596;2023-04-08T13:55:40;19.60;71.20
74809;DHT22;63338;39.544;2.596;2023-04-08T13:58:06;19.60;70.40
74809;DHT22;63338;39.544;2.596;2023-04-08T14:00:32;19.60;70.80
74809;DHT22;63338;39.544;2.596;2023-04-08T14:02:58;19.60;71.20
74809;DHT22;63338;39.544;2.596;2023-04-08T14:05:27;19.50;71.30
74809;DHT22;63338;39.544;2.596;2023-04-08T14:07:53;19.60;72.00
74809;DHT22;63338;39.544;2.596;2023-04-08T14:10:19;19.50;71.80
74809;DHT22;63338;39.544;2.596;2023-04-08T14:12:46;19.50;71.20
74809;DHT22;63338;39.544;2.596;2023-04-08T14:15:12;19.40;71.20
74809;DHT22;63338;39.544;2.596;2023-04-08T14:17:38;19.40;71.80
74809;DHT22;63338;39.544;2.596;2023-04-08T14:20:04;19.40;72.10
74809;DHT22;63338;39.544;2.596;2023-04-08T14:22:33;19.40;72.20
74809;DHT22;63338;39.544;2.596;2023-04-08T14:25:00;19.30;72.20
74809;DHT22;63338;39.544;2.596;2023-04-08T14:27:29;19.30;72.20
74809;DHT22;63338;39.544;2.596;2023-04-08T14:29:55;19.30;72.60
74809;DHT22;63338;39.544;2.596;2023-04-08T14:32:21;19.20;72.90
74809;DHT22;63338;39.544;2.596;2023-04-08T14:34:50;19.20;72.60
74809;DHT22;63338;39.544;2.596;2023-04-08T14:37:16;19.30;72.50
74809;DHT22;63338;39.544;2.596;2023-04-08T14:39:46;19.20;72.50
74809;DHT22;63338;39.544;2.596;2023-04-08T14:42:12;19.20;72.60
74809;DHT22;63338;39.544;2.596;2023-04-08T14:44:41;19.20;72.80
74809;DHT22;63338;39.544;2.596;2023-04-08T14:47:07;19.10;73.00
74809;DHT22;63338;39.544;2.596;2023-04-08T14:49:33;19.10;73.30
74809;DHT22;63338;39.544;2.596;2023-04-08T14:51:59;19.00;74.00
74809;DHT22;63338;39.544;2.596;2023-04-08T14:54:26;19.10;73.50
74809;DHT22;63338;39.544;2.596;2023-04-08T14:56:52;19.00;73.70
74809;DHT22;63338;39.544;2.596;2023-04-08T14:59:18;19.00;73.80
74809;DHT22;63338;39.544;2.596;2023-04-08T15:01:45;19.10;73.50
74809;DHT22;63338;39.544;2.596;2023-04-08T15:04:11;19.20;73.40
74809;DHT22;63338;39.544;2.596;2023-04-08T15:06:36;19.10;73.60
74809;DHT22;63338;39.544;2.596;2023-04-08T15:09:05;19.10;73.30
74809;DHT22;63338;39.544;2.596;2023-04-08T15:11:31;19.00;73.20
74809;DHT22;63338;39.544;2.596;2023-04-08T15:13:57;19.10;73.40
74809;DHT22;63338;39.544;2.596;2023-04-08T15:16:26;19.10;73.20
74809;DHT22;63338;39.544;2.596;2023-04-08T15:18:52;19.00;73.50
74809;DHT22;63338;39.544;2.596;2023-04-08T15:21:18;19.00;73.50
74809;DHT22;63338;39.544;2.596;2023-04-08T15:23:44;19.00;73.50
74809;DHT22;63338;39.544;2.596;2023-04-08T15:26:10;19.10;73.50
74809;DHT22;63338;39.544;2.596;2023-04-08T15:28:36;19.00;73.40
74809;DHT22;63338;39.544;2.596;2023-04-08T15:31:05;19.00;73.70
74809;DHT22;63338;39.544;2.596;2023-04-08T15:33:31;18.90;74.00
74809;DHT22;63338;39.544;2.596;2023-04-08T15:35:59;18.70;74.40
74809;DHT22;63338;39.544;2.596;2023-04-08T15:38:29;18.70;74.50
74809;DHT22;63338;39.544;2.596;2023-04-08T15:40:55;18.70;74.40
74809;DHT22;63338;39.544;2.596;2023-04-08T15:43:22;18.70;74.50
74809;DHT22;63338;39.544;2.596;2023-04-08T15:45:48;18.70;74.20
74809;DHT22;63338;39.544;2.596;2023-04-08T15:48:14;18.80;74.30
74809;DHT22;63338;39.544;2.596;2023-04-08T15:50:40;18.70;73.80